Titusville, FL

12:19 PM EDT on July 03, 2015 (GMT -0400)
Royal Oak | | Change Station
CLOSE
Current Station
Personal Weather Station
Location: Titusville, FL
Elevation: 59 ft
Nearby Weather Stations

Elev 59 ft 28.58 °N, 80.83 °W | Updated 12 minutes ago

Clear
Clear
92.3 °F
Feels Like 107 °F
N
0.0
Wind Variable Wind from West

Today
High -- | Low -- °F
--% Chance of Precip.
Yesterday
High -- | Low -- °F
Precip. -- in
6:29 AM 8:25 PM
Full, 97% visible
Pressure 30.12 in
Visibility 7.0 miles
Clouds Scattered Clouds 2500 ft
Heat Index 107 °F
Dew Point 77 °F
Humidity 62%
Rainfall 0.00 in
Snow Depth Not available.
UV 11 out of 12
Pollen 2.60 out of 12
Air Quality Not available.
Flu Activity Not available.
METAR KTIX 031550Z 18006KT 7SM SCT025 32/20 A3012

More Conditions Fewer Conditions

Pressure 30.12 in
Visibility 7.0 miles
Clouds Scattered Clouds 2500 ft
Heat Index 107 °F
Dew Point 77 °F
Humidity 62%
Rainfall 0.00 in
Snow Depth Not available.
UV 11 out of 12
Pollen 2.60 out of 12
Air Quality Not available.
Flu Activity Not available.
METAR KTIX 031550Z 18006KT 7SM SCT025 32/20 A3012

More Conditions Fewer Conditions

Nowcast | as of 11:42 am EDT on July 3, 2015

Somewhat drier air in the lower levels of the atmosphere will keep convection limited through mid day...though isolated to scattered showers and lightning storms are expected to develop on the East Coast sea breeze boundary and push slowly inland from the Treasure Coast through 2 PM. An increase in coverage of showers and thunderstorms is expected across the interior between 2 and 5 PM today as the east and West Coast sea breezes move slowly inland. There could be a few stronger storms in the late afternoon and early evening across the interior. Additional details...including graphics are available online at: http://www.Srh.NOAA.Gov/mlb/blog.Php

×

10-Day Weather Forecast

×

Almanac

Astronomy

Jul. 03, 2015 Rise Set
Actual Time
Civil Twilight
Nautical Twilight
Astronomical Twilight
Moon
Length of Visible Light
Length of Day
Tomorrow will be .
, % of the Moon is Illuminated

Today's Extremes

State Highs State Lows

Community

WunderPhotos

Upload Photos

1,834,688 photos uploaded!

WunderBlogs® & News

Nearby

Air Quality

  Air Quality AQ Index Pollutant
Not available.

Snow Depth

Station Depth Elevation

Earthquake Activity

City Distance Mag. Time & Date
Minimum magnitude displayed is 2.5.

Coastal Water Temperatures

Place Temperature

Stations

Nearby Weather Stations

Station Location Temp. Windchill Dew Point Humidity Wind Precip. Elev Updated Type